Time,TemperatureF,DewpointF,PressureIn,WindDirection,WindDirectionDegrees,WindSpeedMPH,WindSpeedGustMPH,Humidity,HourlyPrecipIn,Conditions,Clouds,dailyrainin,SoftwareType,DateUTC
2013-04-29 00:03:00,79.0,-99.9,29.96,East,84,10.0,11.0,-999,-99.99,,,-99.99,,2013-04-29 04:03:00,
2013-04-29 00:13:00,80.0,-99.9,29.95,East,81,10.0,14.0,-999,-99.99,,,-99.99,,2013-04-29 04:13:00,
2013-04-29 00:23:00,79.0,-99.9,29.96,East,101,8.0,10.0,-999,-99.99,,,-99.99,,2013-04-29 04:23:00,
2013-04-29 00:33:00,79.0,-99.9,29.96,East,99,6.0,9.0,-999,-99.99,,,-99.99,,2013-04-29 04:33:00,
2013-04-29 00:43:00,75.0,-99.9,29.96,ESE,104,14.0,21.0,-999,-99.99,,,-99.99,,2013-04-29 04:43:00,
2013-04-29 00:52:00,75.0,-99.9,29.95,ENE,60,3.0,6.0,-999,-99.99,,,-99.99,,2013-04-29 04:52:00,
2013-04-29 01:02:00,75.0,-99.9,29.95,ESE,111,2.0,3.0,-999,-99.99,,,-99.99,,2013-04-29 05:02:00,
2013-04-29 01:12:00,76.0,-99.9,29.94,SE,143,6.0,8.0,-999,-99.99,,,-99.99,,2013-04-29 05:12:00,
2013-04-29 01:22:00,76.0,-99.9,29.95,SE,134,2.0,4.0,-999,-99.99,,,-99.99,,2013-04-29 05:22:00,
2013-04-29 01:32:00,76.0,-99.9,29.95,SSW,211,1.0,2.0,-999,-99.99,,,-99.99,,2013-04-29 05:32:00,
2013-04-29 01:42:00,76.0,-99.9,29.94,SSW,202,1.0,1.0,-999,-99.99,,,-99.99,,2013-04-29 05:42:00,
2013-04-29 01:52:00,76.0,-99.9,29.94,SSE,151,2.0,3.0,-999,-99.99,,,-99.99,,2013-04-29 05:52:00,
2013-04-29 02:02:00,77.0,-99.9,29.94,SE,133,2.0,3.0,-999,-99.99,,,-99.99,,2013-04-29 06:02:00,
2013-04-29 02:12:00,77.0,-99.9,29.93,SW,225,2.0,2.0,-999,-99.99,,,-99.99,,2013-04-29 06:12:00,
2013-04-29 02:22:00,76.0,-99.9,29.93,SSW,198,3.0,4.0,-999,-99.99,,,-99.99,,2013-04-29 06:22:00,
2013-04-29 02:32:00,77.0,-99.9,29.93,SSE,158,3.0,5.0,-999,-99.99,,,-99.99,,2013-04-29 06:32:00,
2013-04-29 02:42:00,77.0,-99.9,29.93,SE,126,6.0,7.0,-999,-99.99,,,-99.99,,2013-04-29 06:42:00,
2013-04-29 02:52:00,77.0,-99.9,29.93,SSE,148,5.0,6.0,-999,-99.99,,,-99.99,,2013-04-29 06:52:00,
2013-04-29 03:02:00,77.0,-99.9,29.92,South,184,3.0,6.0,-999,-99.99,,,-99.99,,2013-04-29 07:02:00,
2013-04-29 03:11:00,77.0,-99.9,29.92,South,175,4.0,5.0,-999,-99.99,,,-99.99,,2013-04-29 07:11:00,
2013-04-29 03:22:00,77.0,-99.9,29.92,SSW,210,4.0,5.0,-999,-99.99,,,-99.99,,2013-04-29 07:22:00,
2013-04-29 03:32:00,77.0,-99.9,29.92,South,185,3.0,4.0,-999,-99.99,,,-99.99,,2013-04-29 07:32:00,
2013-04-29 03:42:00,76.0,-99.9,29.92,ESE,107,3.0,5.0,-999,-99.99,,,-99.99,,2013-04-29 07:42:00,
2013-04-29 03:52:00,77.0,-99.9,29.92,South,169,5.0,7.0,-999,-99.99,,,-99.99,,2013-04-29 07:52:00,
2013-04-29 04:03:00,76.0,-99.9,29.92,SE,146,5.0,6.0,-999,-99.99,,,-99.99,,2013-04-29 08:03:00,
2013-04-29 04:11:00,77.0,-99.9,29.92,SW,214,5.0,6.0,-999,-99.99,,,-99.99,,2013-04-29 08:11:00,
2013-04-29 04:22:00,76.0,-99.9,29.92,SW,232,5.0,5.0,-999,-99.99,,,-99.99,,2013-04-29 08:22:00,
2013-04-29 04:32:00,76.0,-99.9,29.92,SW,220,5.0,6.0,-999,-99.99,,,-99.99,,2013-04-29 08:32:00,
2013-04-29 04:42:00,76.0,-99.9,29.92,SSW,210,5.0,6.0,-999,-99.99,,,-99.99,,2013-04-29 08:42:00,
2013-04-29 04:52:00,76.0,-99.9,29.92,SSW,203,5.0,6.0,-999,-99.99,,,-99.99,,2013-04-29 08:52:00,
2013-04-29 05:02:00,76.0,-99.9,29.91,SW,218,4.0,5.0,-999,-99.99,,,-99.99,,2013-04-29 09:02:00,
2013-04-29 05:12:00,76.0,-99.9,29.91,SW,214,3.0,5.0,-999,-99.99,,,-99.99,,2013-04-29 09:12:00,
2013-04-29 05:22:00,76.0,-99.9,29.92,SSW,207,4.0,5.0,-999,-99.99,,,-99.99,,2013-04-29 09:22:00,
2013-04-29 05:33:00,75.0,-99.9,29.92,SSW,209,4.0,5.0,-999,-99.99,,,-99.99,,2013-04-29 09:33:00,
2013-04-29 05:42:00,75.0,-99.9,29.92,SSW,195,3.0,6.0,-999,-99.99,,,-99.99,,2013-04-29 09:42:00,
2013-04-29 05:53:00,75.0,-99.9,29.92,South,189,4.0,5.0,-999,-99.99,,,-99.99,,2013-04-29 09:53:00,
2013-04-29 06:03:00,75.0,-99.9,29.92,SSW,205,3.0,4.0,-999,-99.99,,,-99.99,,2013-04-29 10:03:00,
2013-04-29 06:12:00,75.0,-99.9,29.92,SSW,206,2.0,4.0,-999,-99.99,,,-99.99,,2013-04-29 10:12:00,
2013-04-29 06:23:00,76.0,-99.9,29.93,SW,219,2.0,4.0,-999,-99.99,,,-99.99,,2013-04-29 10:23:00,
2013-04-29 06:32:00,75.0,-99.9,29.93,SSW,206,3.0,4.0,-999,-99.99,,,-99.99,,2013-04-29 10:32:00,
2013-04-29 06:42:00,75.0,-99.9,29.93,SSE,157,2.0,4.0,-999,-99.99,,,-99.99,,2013-04-29 10:42:00,
2013-04-29 06:52:00,76.0,-99.9,29.93,South,175,2.0,4.0,-999,-99.99,,,-99.99,,2013-04-29 10:52:00,
2013-04-29 07:03:00,76.0,-99.9,29.94,South,186,2.0,3.0,-999,-99.99,,,-99.99,,2013-04-29 11:03:00,
2013-04-29 07:12:00,76.0,-99.9,29.94,SSW,192,3.0,4.0,-999,-99.99,,,-99.99,,2013-04-29 11:12:00,
2013-04-29 07:22:00,76.0,-99.9,29.95,South,183,4.0,4.0,-999,-99.99,,,-99.99,,2013-04-29 11:22:00,
2013-04-29 07:32:00,76.0,-99.9,29.95,South,183,4.0,4.0,-999,-99.99,,,-99.99,,2013-04-29 11:32:00,
2013-04-29 07:42:00,77.0,-99.9,29.95,SE,135,5.0,7.0,-999,-99.99,,,-99.99,,2013-04-29 11:42:00,
2013-04-29 07:52:00,77.0,-99.9,29.95,SE,144,7.0,8.0,-999,-99.99,,,-99.99,,2013-04-29 11:52:00,
2013-04-29 08:01:00,78.0,-99.9,29.96,SE,140,4.0,7.0,-999,-99.99,,,-99.99,,2013-04-29 12:01:00,
2013-04-29 08:12:00,78.0,-99.9,29.96,SE,126,9.0,10.0,-999,-99.99,,,-99.99,,2013-04-29 12:12:00,
2013-04-29 08:22:00,78.0,-99.9,29.96,SE,133,7.0,8.0,-999,-99.99,,,-99.99,,2013-04-29 12:22:00,
2013-04-29 08:32:00,79.0,-99.9,29.96,SE,132,7.0,10.0,-999,-99.99,,,-99.99,,2013-04-29 12:32:00,
2013-04-29 08:42:00,79.0,-99.9,29.96,ESE,102,9.0,12.0,-999,-99.99,,,-99.99,,2013-04-29 12:42:00,
2013-04-29 08:52:00,79.0,-99.9,29.96,East,101,9.0,14.0,-999,-99.99,,,-99.99,,2013-04-29 12:52:00,
2013-04-29 09:01:00,79.0,-99.9,29.96,ESE,105,10.0,13.0,-999,-99.99,,,-99.99,,2013-04-29 13:01:00,
2013-04-29 09:11:00,79.0,-99.9,29.96,East,96,11.0,14.0,-999,-99.99,,,-99.99,,2013-04-29 13:11:00,
2013-04-29 09:22:00,80.0,-99.9,29.96,East,88,10.0,13.0,-999,-99.99,,,-99.99,,2013-04-29 13:22:00,
2013-04-29 09:32:00,80.0,-99.9,29.97,East,96,9.0,13.0,-999,-99.99,,,-99.99,,2013-04-29 13:32:00,
2013-04-29 09:42:00,80.0,-99.9,29.97,East,89,12.0,15.0,-999,-99.99,,,-99.99,,2013-04-29 13:42:00,
2013-04-29 09:52:00,80.0,-99.9,29.97,East,94,11.0,18.0,-999,-99.99,,,-99.99,,2013-04-29 13:52:00,
2013-04-29 10:02:00,80.0,-99.9,29.98,East,92,14.0,17.0,-999,-99.99,,,-99.99,,2013-04-29 14:02:00,
2013-04-29 10:12:00,80.0,-99.9,29.98,East,87,14.0,18.0,-999,-99.99,,,-99.99,,2013-04-29 14:12:00,
2013-04-29 10:22:00,80.0,-99.9,29.98,East,85,16.0,19.0,-999,-99.99,,,-99.99,,2013-04-29 14:22:00,
2013-04-29 10:32:00,80.0,-99.9,29.98,East,87,16.0,18.0,-999,-99.99,,,-99.99,,2013-04-29 14:32:00,
2013-04-29 10:42:00,80.0,-99.9,29.98,East,87,14.0,17.0,-999,-99.99,,,-99.99,,2013-04-29 14:42:00,
2013-04-29 10:52:00,80.0,-99.9,29.97,East,80,14.0,19.0,-999,-99.99,,,-99.99,,2013-04-29 14:52:00,
2013-04-29 11:01:00,80.0,-99.9,29.97,ENE,77,14.0,18.0,-999,-99.99,,,-99.99,,2013-04-29 15:01:00,
2013-04-29 11:12:00,80.0,-99.9,29.97,ENE,77,13.0,18.0,-999,-99.99,,,-99.99,,2013-04-29 15:12:00,
2013-04-29 11:22:00,80.0,-99.9,29.97,ENE,74,14.0,18.0,-999,-99.99,,,-99.99,,2013-04-29 15:22:00,
2013-04-29 11:33:00,80.0,-99.9,29.97,East,79,14.0,19.0,-999,-99.99,,,-99.99,,2013-04-29 15:33:00,
2013-04-29 11:43:00,80.0,-99.9,29.96,East,91,16.0,21.0,-999,-99.99,,,-99.99,,2013-04-29 15:43:00,
2013-04-29 11:53:00,80.0,-99.9,29.96,ENE,74,15.0,19.0,-999,-99.99,,,-99.99,,2013-04-29 15:53:00,
2013-04-29 12:03:00,80.0,-99.9,29.96,ENE,72,16.0,20.0,-999,-99.99,,,-99.99,,2013-04-29 16:03:00,
2013-04-29 12:13:00,80.0,-99.9,29.96,East,85,17.0,20.0,-999,-99.99,,,-99.99,,2013-04-29 16:13:00,
2013-04-29 12:23:00,80.0,-99.9,29.96,East,79,15.0,19.0,-999,-99.99,,,-99.99,,2013-04-29 16:23:00,
2013-04-29 12:33:00,80.0,-99.9,29.96,East,83,15.0,19.0,-999,-99.99,,,-99.99,,2013-04-29 16:33:00,
2013-04-29 12:42:00,80.0,-99.9,29.96,East,91,17.0,20.0,-999,-99.99,,,-99.99,,2013-04-29 16:42:00,
2013-04-29 12:52:00,80.0,-99.9,29.96,East,88,16.0,20.0,-999,-99.99,,,-99.99,,2013-04-29 16:52:00,
2013-04-29 13:02:00,80.0,-99.9,29.96,ENE,74,16.0,21.0,-999,-99.99,,,-99.99,,2013-04-29 17:02:00,
2013-04-29 13:12:00,80.0,-99.9,29.95,ENE,75,17.0,20.0,-999,-99.99,,,-99.99,,2013-04-29 17:12:00,
2013-04-29 13:23:00,80.0,-99.9,29.95,ENE,74,15.0,18.0,-999,-99.99,,,-99.99,,2013-04-29 17:23:00,
2013-04-29 13:32:00,81.0,-99.9,29.95,ENE,73,15.0,19.0,-999,-99.99,,,-99.99,,2013-04-29 17:32:00,
2013-04-29 13:42:00,81.0,-99.9,29.95,ENE,73,15.0,17.0,-999,-99.99,,,-99.99,,2013-04-29 17:42:00,
2013-04-29 13:52:00,80.0,-99.9,29.94,ENE,73,15.0,18.0,-999,-99.99,,,-99.99,,2013-04-29 17:52:00,
2013-04-29 14:01:00,81.0,-99.9,29.93,ENE,70,14.0,19.0,-999,-99.99,,,-99.99,,2013-04-29 18:01:00,
2013-04-29 14:13:00,81.0,-99.9,29.93,East,81,15.0,20.0,-999,-99.99,,,-99.99,,2013-04-29 18:13:00,
2013-04-29 14:22:00,81.0,-99.9,29.92,ENE,76,17.0,21.0,-999,-99.99,,,-99.99,,2013-04-29 18:22:00,
2013-04-29 14:32:00,81.0,-99.9,29.92,ENE,75,15.0,19.0,-999,-99.99,,,-99.99,,2013-04-29 18:32:00,
2013-04-29 14:42:00,80.0,-99.9,29.93,ENE,77,18.0,21.0,-999,-99.99,,,-99.99,,2013-04-29 18:42:00,
2013-04-29 14:52:00,80.0,-99.9,29.92,ENE,76,15.0,19.0,-999,-99.99,,,-99.99,,2013-04-29 18:52:00,
2013-04-29 15:01:00,80.0,-99.9,29.92,ENE,74,14.0,18.0,-999,-99.99,,,-99.99,,2013-04-29 19:01:00,
2013-04-29 15:12:00,80.0,-99.9,29.92,ENE,76,14.0,19.0,-999,-99.99,,,-99.99,,2013-04-29 19:12:00,
2013-04-29 15:22:00,80.0,-99.9,29.93,ENE,74,14.0,20.0,-999,-99.99,,,-99.99,,2013-04-29 19:22:00,
2013-04-29 15:32:00,80.0,-99.9,29.93,ENE,78,14.0,19.0,-999,-99.99,,,-99.99,,2013-04-29 19:32:00,
2013-04-29 15:42:00,80.0,-99.9,29.93,East,91,15.0,19.0,-999,-99.99,,,-99.99,,2013-04-29 19:42:00,
2013-04-29 15:52:00,80.0,-99.9,29.92,East,86,14.0,19.0,-999,-99.99,,,-99.99,,2013-04-29 19:52:00,
2013-04-29 16:02:00,80.0,-99.9,29.91,ENE,78,14.0,17.0,-999,-99.99,,,-99.99,,2013-04-29 20:02:00,
2013-04-29 16:12:00,80.0,-99.9,29.91,East,88,17.0,19.0,-999,-99.99,,,-99.99,,2013-04-29 20:12:00,
2013-04-29 16:22:00,80.0,-99.9,29.92,ENE,78,13.0,17.0,-999,-99.99,,,-99.99,,2013-04-29 20:22:00,
2013-04-29 16:32:00,80.0,-99.9,29.92,East,92,15.0,19.0,-999,-99.99,,,-99.99,,2013-04-29 20:32:00,
2013-04-29 16:43:00,80.0,-99.9,29.91,East,89,16.0,21.0,-999,-99.99,,,-99.99,,2013-04-29 20:43:00,
2013-04-29 16:52:00,80.0,-99.9,29.91,ENE,76,13.0,19.0,-999,-99.99,,,-99.99,,2013-04-29 20:52:00,
2013-04-29 17:02:00,80.0,-99.9,29.92,ENE,70,14.0,20.0,-999,-99.99,,,-99.99,,2013-04-29 21:02:00,
2013-04-29 17:12:00,80.0,-99.9,29.92,ENE,75,13.0,20.0,-999,-99.99,,,-99.99,,2013-04-29 21:12:00,
2013-04-29 17:22:00,80.0,-99.9,29.91,ENE,77,15.0,18.0,-999,-99.99,,,-99.99,,2013-04-29 21:22:00,
2013-04-29 17:33:00,80.0,-99.9,29.91,ENE,74,15.0,18.0,-999,-99.99,,,-99.99,,2013-04-29 21:33:00,
2013-04-29 17:43:00,80.0,-99.9,29.92,East,86,15.0,17.0,-999,-99.99,,,-99.99,,2013-04-29 21:43:00,
2013-04-29 17:53:00,80.0,-99.9,29.91,ENE,76,16.0,20.0,-999,-99.99,,,-99.99,,2013-04-29 21:53:00,
2013-04-29 18:03:00,80.0,-99.9,29.91,East,84,17.0,20.0,-999,-99.99,,,-99.99,,2013-04-29 22:03:00,
2013-04-29 18:13:00,81.0,-99.9,29.92,East,87,16.0,21.0,-999,-99.99,,,-99.99,,2013-04-29 22:13:00,
2013-04-29 18:23:00,81.0,-99.9,29.92,ENE,75,14.0,19.0,-999,-99.99,,,-99.99,,2013-04-29 22:23:00,
2013-04-29 18:33:00,80.0,-99.9,29.92,East,88,16.0,19.0,-999,-99.99,,,-99.99,,2013-04-29 22:33:00,
2013-04-29 18:42:00,80.0,-99.9,29.92,East,88,16.0,19.0,-999,-99.99,,,-99.99,,2013-04-29 22:42:00,
2013-04-29 18:53:00,80.0,-99.9,29.93,East,85,15.0,19.0,-999,-99.99,,,-99.99,,2013-04-29 22:53:00,
2013-04-29 19:02:00,80.0,-99.9,29.92,East,83,16.0,20.0,-999,-99.99,,,-99.99,,2013-04-29 23:02:00,
2013-04-29 19:12:00,80.0,-99.9,29.92,East,88,17.0,20.0,-999,-99.99,,,-99.99,,2013-04-29 23:12:00,
2013-04-29 19:22:00,80.0,-99.9,29.92,East,86,16.0,19.0,-999,-99.99,,,-99.99,,2013-04-29 23:22:00,
2013-04-29 19:32:00,80.0,-99.9,29.93,East,92,17.0,20.0,-999,-99.99,,,-99.99,,2013-04-29 23:32:00,
2013-04-29 19:42:00,80.0,-99.9,29.93,East,91,17.0,19.0,-999,-99.99,,,-99.99,,2013-04-29 23:42:00,
2013-04-29 19:53:00,80.0,-99.9,29.94,East,87,15.0,20.0,-999,-99.99,,,-99.99,,2013-04-29 23:53:00,
2013-04-29 20:01:00,80.0,-99.9,29.94,East,89,16.0,19.0,-999,-99.99,,,-99.99,,2013-04-30 00:01:00,
2013-04-29 20:11:00,80.0,-99.9,29.94,ENE,78,13.0,17.0,-999,-99.99,,,-99.99,,2013-04-30 00:11:00,
2013-04-29 20:22:00,80.0,-99.9,29.94,East,86,17.0,20.0,-999,-99.99,,,-99.99,,2013-04-30 00:22:00,
2013-04-29 20:32:00,79.0,-99.9,29.95,East,85,18.0,21.0,-999,-99.99,,,-99.99,,2013-04-30 00:32:00,
2013-04-29 20:42:00,80.0,-99.9,29.95,East,84,16.0,18.0,-999,-99.99,,,-99.99,,2013-04-30 00:42:00,
2013-04-29 20:52:00,80.0,-99.9,29.96,East,79,13.0,18.0,-999,-99.99,,,-99.99,,2013-04-30 00:52:00,
2013-04-29 21:02:00,80.0,-99.9,29.96,East,86,14.0,19.0,-999,-99.99,,,-99.99,,2013-04-30 01:02:00,
2013-04-29 21:11:00,80.0,-99.9,29.96,East,85,17.0,19.0,-999,-99.99,,,-99.99,,2013-04-30 01:11:00,
2013-04-29 21:22:00,80.0,-99.9,29.97,East,86,12.0,16.0,-999,-99.99,,,-99.99,,2013-04-30 01:22:00,
2013-04-29 21:32:00,80.0,-99.9,29.96,East,88,14.0,19.0,-999,-99.99,,,-99.99,,2013-04-30 01:32:00,
2013-04-29 21:42:00,80.0,-99.9,29.97,East,85,16.0,19.0,-999,-99.99,,,-99.99,,2013-04-30 01:42:00,
2013-04-29 21:52:00,80.0,-99.9,29.97,East,85,15.0,19.0,-999,-99.99,,,-99.99,,2013-04-30 01:52:00,
2013-04-29 22:01:00,79.0,-99.9,29.97,East,81,16.0,19.0,-999,-99.99,,,-99.99,,2013-04-30 02:01:00,
2013-04-29 22:11:00,80.0,-99.9,29.97,East,86,14.0,17.0,-999,-99.99,,,-99.99,,2013-04-30 02:11:00,
2013-04-29 22:21:00,80.0,-99.9,29.98,East,89,15.0,18.0,-999,-99.99,,,-99.99,,2013-04-30 02:21:00,
2013-04-29 22:32:00,80.0,-99.9,29.98,East,87,15.0,17.0,-999,-99.99,,,-99.99,,2013-04-30 02:32:00,
2013-04-29 22:42:00,80.0,-99.9,29.98,East,86,15.0,18.0,-999,-99.99,,,-99.99,,2013-04-30 02:42:00,
2013-04-29 22:52:00,80.0,-99.9,29.98,East,87,14.0,16.0,-999,-99.99,,,-99.99,,2013-04-30 02:52:00,
2013-04-29 23:01:00,80.0,-99.9,29.98,East,97,12.0,17.0,-999,-99.99,,,-99.99,,2013-04-30 03:01:00,
2013-04-29 23:11:00,80.0,-99.9,29.98,East,94,11.0,17.0,-999,-99.99,,,-99.99,,2013-04-30 03:11:00,
2013-04-29 23:22:00,79.0,-99.9,29.97,East,101,17.0,19.0,-999,-99.99,,,-99.99,,2013-04-30 03:22:00,
2013-04-29 23:33:00,80.0,-99.9,29.97,East,86,16.0,19.0,-999,-99.99,,,-99.99,,2013-04-30 03:33:00,
2013-04-29 23:43:00,80.0,-99.9,29.97,East,94,15.0,19.0,-999,-99.99,,,-99.99,,2013-04-30 03:43:00,
2013-04-29 23:53:00,80.0,-99.9,29.97,East,98,13.0,19.0,-999,-99.99,,,-99.99,,2013-04-30 03:53:00,